Time;durP1;ratioP1;P1;durP2;ratioP2;P2;SDS_P1;SDS_P2;PMS_P1;PMS_P2;Temp;Humidity;BMP_temperature;BMP_pressure;BME280_temperature;BME280_humidity;BME280_pressure;Samples;Min_cycle;Max_cycle;Signal;HPM_P1;HPM_P2
2024/01/22 06:44:15;;;;;;;;;;;;;;;;;;;;;
2024/01/22 07:00:38;;;;;;;;;;;;;;;;;;;;;
2024/01/22 07:05:56;;;;;;;1.15;0.60;;;;;;;;;;10447429;28;20014;-85
2024/01/22 07:16:47;;;;;;;;;;;;;;;;;;;;;
2024/01/22 07:22:13;;;;;;;;;;;;;;;;;;10455105;28;20105;-83
2024/01/22 07:27:18;;;;;;;2.17;0.60;;;;;;;;;;10465233;23;20133;-82
2024/01/22 07:38:26;;;;;;;2.05;0.70;;;;;;;;;;10415524;28;20049;-82
2024/01/22 07:43:27;;;;;;;1.30;0.60;;;;;;;;;;10408710;28;20041;-81
2024/01/22 07:48:38;;;;;;;1.60;0.50;;;;;;;;;;10422263;28;20033;-82
2024/01/22 07:53:50;;;;;;;2.20;1.15;;;;;;;;;;10384389;28;20034;-81
2024/01/22 07:58:52;;;;;;;1.50;0.65;;;;;;;;;;10391129;28;20049;-81
2024/01/22 08:03:58;;;;;;;;;;;;;;;;;;10376497;28;20030;-82
2024/01/22 08:09:03;;;;;;;3.55;1.75;;;;;;;;;;10372823;28;19917;-81
2024/01/22 08:14:24;;;;;;;1.38;0.80;;;;;;;;;;10390408;28;20080;-81
2024/01/22 08:19:43;;;;;;;2.63;0.82;;;;;;;;;;10371343;28;20029;-82
2024/01/22 08:24:44;;;;;;;2.20;1.23;;;;;;;;;;10388258;28;20504;-81
2024/01/22 08:30:27;;;;;;;2.22;0.93;;;;;;;;;;10368886;28;20041;-80
2024/01/22 08:41:44;;;;;;;3.65;1.75;;;;;;;;;;10389186;28;20472;-82
2024/01/22 08:47:28;;;;;;;3.03;1.00;;;;;;;;;;10313020;28;20381;-81
2024/01/22 08:52:34;;;;;;;4.45;1.70;;;;;;;;;;10388840;28;20044;-80
2024/01/22 08:57:36;;;;;;;1.70;0.93;;;;;;;;;;10371750;28;20120;-81
2024/01/22 09:08:19;;;;;;;;;;;;;;;;;;10386267;28;20457;-82
2024/01/22 09:13:32;;;;;;;2.15;1.00;;;;;;;;;;10367818;28;19920;-80
2024/01/22 09:18:40;;;;;;;1.90;0.70;;;;;;;;;;10366193;28;20117;-81
2024/01/22 09:24:17;;;;;;;1.90;0.80;;;;;;;;;;10386873;28;20038;-81
2024/01/22 09:35:42;;;;;;;2.80;1.40;;;;;;;;;;10298476;28;20031;-81
2024/01/22 09:40:54;;;;;;;15.05;13.52;;;;;;;;;;10286339;28;20085;-81
2024/01/22 09:46:11;;;;;;;1.70;0.82;;;;;;;;;;10280567;28;20031;-81
2024/01/22 09:51:13;;;;;;;2.72;0.80;;;;;;;;;;10302538;28;20035;-80
2024/01/22 09:56:42;;;;;;;2.00;0.90;;;;;;;;;;10286241;28;20027;-81
2024/01/22 10:02:25;;;;;;;3.88;1.38;;;;;;;;;;10300032;28;20038;-81
2024/01/22 10:08:14;;;;;;;2.55;1.17;;;;;;;;;;10358342;28;20063;-79
2024/01/22 10:13:50;;;;;;;4.10;1.00;;;;;;;;;;10387752;28;20038;-82
2024/01/22 10:19:07;;;;;;;3.75;1.13;;;;;;;;;;10387642;28;20030;-83
2024/01/22 10:24:09;;;;;;;4.80;1.55;;;;;;;;;;10363006;28;20083;-82
2024/01/22 10:29:18;;;;;;;2.55;1.15;;;;;;;;;;10356773;28;20045;-80
2024/01/22 10:34:22;;;;;;;4.63;1.65;;;;;;;;;;10380568;28;20033;-82
2024/01/22 10:39:26;;;;;;;4.30;1.30;;;;;;;;;;10375486;28;20030;-83
2024/01/22 10:44:28;;;;;;;6.38;1.13;;;;;;;;;;10368735;28;20034;-84
2024/01/22 10:49:29;;;;;;;2.60;1.20;;;;;;;;;;10369887;28;20030;-81
2024/01/22 10:54:31;;;;;;;4.05;1.20;;;;;;;;;;10370240;28;20033;-81
2024/01/22 10:59:36;;;;;;;2.45;1.00;;;;;;;;;;10368463;28;20092;-80
2024/01/22 11:04:39;;;;;;;4.95;1.20;;;;;;;;;;10368226;28;20046;-80
2024/01/22 11:09:40;;;;;;;4.97;1.50;;;;;;;;;;10365435;28;20477;-79
2024/01/22 11:14:42;;;;;;;4.97;1.70;;;;;;;;;;10365702;28;20026;-84
2024/01/22 11:19:43;;;;;;;;;;;;;;;;;;10365903;28;20088;-81
2024/01/22 11:25:00;;;;;;;5.57;1.63;;;;;;;;;;10381329;28;19905;-81
2024/01/22 11:30:21;;;;;;;5.18;1.55;;;;;;;;;;10373041;28;20106;-82
2024/01/22 11:35:35;;;;;;;4.07;1.25;;;;;;;;;;10372353;28;20038;-82
2024/01/22 11:40:47;;;;;;;5.60;2.08;;;;;;;;;;10372467;28;20026;-80
2024/01/22 11:45:51;;;;;;;5.38;2.10;;;;;;;;;;10375016;28;20025;-79
2024/01/22 11:51:02;;;;;;;7.13;2.20;;;;;;;;;;10369365;28;20459;-81
2024/01/22 11:56:06;;;;;;;4.53;1.27;;;;;;;;;;10368468;28;20041;-82
2024/01/22 12:01:12;;;;;;;6.82;2.03;;;;;;;;;;10385732;28;20026;-81
2024/01/22 12:06:13;;;;;;;7.20;1.40;;;;;;;;;;10371562;28;20092;-80
2024/01/22 12:11:16;;;;;;;7.95;2.38;;;;;;;;;;10369234;28;20513;-81
2024/01/22 12:16:18;;;;;;;6.55;1.48;;;;;;;;;;10369584;28;20030;-80
2024/01/22 12:21:20;;;;;;;6.80;3.15;;;;;;;;;;10367445;28;20033;-81
2024/01/22 12:26:23;;;;;;;7.65;3.28;;;;;;;;;;10366618;28;20524;-80
2024/01/22 12:31:24;;;;;;;11.20;3.25;;;;;;;;;;10384153;28;20036;-80
2024/01/22 12:36:26;;;;;;;10.60;3.15;;;;;;;;;;10362596;28;20468;-78
2024/01/22 12:41:27;;;;;;;10.18;2.38;;;;;;;;;;10362367;28;20072;-77
2024/01/22 12:46:31;;;;;;;9.90;2.22;;;;;;;;;;10400473;28;20139;-78
2024/01/22 12:51:32;;;;;;;11.98;3.03;;;;;;;;;;10375468;28;20056;-78
2024/01/22 12:56:34;;;;;;;10.18;3.90;;;;;;;;;;10362341;28;20467;-80
2024/01/22 13:01:35;;;;;;;12.95;3.63;;;;;;;;;;10361943;28;20034;-78
2024/01/22 13:06:37;;;;;;;14.15;3.08;;;;;;;;;;10362678;28;20037;-78
2024/01/22 13:11:38;;;;;;;11.45;3.97;;;;;;;;;;10361800;28;20083;-78
2024/01/22 13:16:39;;;;;;;14.35;3.53;;;;;;;;;;10362176;28;20060;-78
2024/01/22 13:21:40;;;;;;;7.85;2.00;;;;;;;;;;10361725;28;20103;-79
2024/01/22 13:26:41;;;;;;;;;;;;;;;;;;10361462;28;20034;-77
2024/01/22 13:31:42;;;;;;;13.15;2.67;;;;;;;;;;10358270;28;19918;-77
2024/01/22 13:36:43;;;;;;;8.07;2.15;;;;;;;;;;10360286;28;20121;-78
2024/01/22 13:41:44;;;;;;;8.27;2.05;;;;;;;;;;10358706;28;20512;-77
2024/01/22 13:46:45;;;;;;;13.63;3.17;;;;;;;;;;10358696;28;20052;-78
2024/01/22 13:51:46;;;;;;;16.58;4.03;;;;;;;;;;10359297;28;20030;-77
2024/01/22 13:56:47;;;;;;;8.05;2.47;;;;;;;;;;10359132;28;20099;-77
2024/01/22 14:01:50;;;;;;;13.55;3.85;;;;;;;;;;10361793;28;20490;-78
2024/01/22 14:06:51;;;;;;;8.20;2.70;;;;;;;;;;10379632;28;20521;-77
2024/01/22 14:11:53;;;;;;;12.27;3.67;;;;;;;;;;10357882;28;20137;-77
2024/01/22 14:17:01;;;;;;;12.02;2.95;;;;;;;;;;10376161;28;20105;-78
2024/01/22 14:22:02;;;;;;;8.48;2.65;;;;;;;;;;10361031;28;20041;-77
2024/01/22 14:27:03;;;;;;;14.65;4.95;;;;;;;;;;10397786;28;20010;-79
2024/01/22 14:32:04;;;;;;;8.32;2.63;;;;;;;;;;10405116;28;20065;-79
2024/01/22 14:37:05;;;;;;;;;;;;;;;;;;10362102;28;20034;-78
2024/01/22 14:42:06;;;;;;;11.95;3.28;;;;;;;;;;10361166;28;20270;-78
2024/01/22 14:47:14;;;;;;;7.63;2.38;;;;;;;;;;10379317;28;20056;-80
2024/01/22 14:52:29;;;;;;;11.85;4.22;;;;;;;;;;10359586;28;20128;-78
2024/01/22 14:57:36;;;;;;;8.85;2.60;;;;;;;;;;10371259;28;20575;-80
2024/01/22 15:02:48;;;;;;;10.07;3.40;;;;;;;;;;10365618;28;20034;-79
2024/01/22 15:07:50;;;;;;;15.18;3.80;;;;;;;;;;10354257;28;20401;-79
2024/01/22 15:12:51;;;;;;;12.43;3.90;;;;;;;;;;10367560;28;20033;-78
2024/01/22 15:17:53;;;;;;;15.80;5.07;;;;;;;;;;10370090;28;20029;-79
2024/01/22 15:22:57;;;;;;;11.70;3.97;;;;;;;;;;10373116;28;20121;-79
2024/01/22 15:27:58;;;;;;;11.75;3.85;;;;;;;;;;10368900;28;20025;-79
2024/01/22 15:32:59;;;;;;;11.13;4.85;;;;;;;;;;10373937;28;20101;-83
2024/01/22 15:38:02;;;;;;;11.00;3.78;;;;;;;;;;10376856;28;20030;-83
2024/01/22 15:43:05;;;;;;;9.63;3.03;;;;;;;;;;10377872;28;20474;-84
2024/01/22 15:48:09;;;;;;;10.65;3.50;;;;;;;;;;10377629;28;20084;-83
2024/01/22 15:53:11;;;;;;;8.95;2.97;;;;;;;;;;10359919;28;20039;-83
2024/01/22 15:58:12;;;;;;;10.55;3.50;;;;;;;;;;10379557;28;20501;-85
2024/01/22 16:03:13;;;;;;;;;;;;;;;;;;10377675;28;20061;-82
2024/01/22 16:08:16;;;;;;;15.45;4.15;;;;;;;;;;10395879;28;19910;-83
2024/01/22 16:13:17;;;;;;;9.27;2.90;;;;;;;;;;10375165;28;20053;-82
2024/01/22 16:18:18;;;;;;;7.07;2.25;;;;;;;;;;10374839;28;20022;-84
2024/01/22 16:23:19;;;;;;;;;;;;;;;;;;10371440;28;20444;-79
2024/01/22 16:28:20;;;;;;;12.80;4.93;;;;;;;;;;10368213;28;19996;-78
2024/01/22 16:33:21;;;;;;;10.98;3.63;;;;;;;;;;10368460;28;20034;-78
2024/01/22 16:38:22;;;;;;;11.98;3.35;;;;;;;;;;10371282;28;20022;-79
2024/01/22 16:43:23;;;;;;;;;;;;;;;;;;10368606;28;20041;-79
2024/01/22 16:48:29;;;;;;;9.95;2.83;;;;;;;;;;10368601;28;19912;-80
2024/01/22 16:53:33;;;;;;;19.02;12.10;;;;;;;;;;10367853;28;20478;-81
2024/01/22 16:58:35;;;;;;;10.75;3.05;;;;;;;;;;10366329;28;20057;-79
2024/01/22 17:03:37;;;;;;;;;;;;;;;;;;10367376;28;20036;-79
2024/01/22 17:08:40;;;;;;;9.85;2.72;;;;;;;;;;10384416;28;19972;-79
2024/01/22 17:13:41;;;;;;;9.52;3.10;;;;;;;;;;10365722;28;20033;-79
2024/01/22 17:18:44;;;;;;;12.88;3.17;;;;;;;;;;10368275;28;20453;-80
2024/01/22 17:23:47;;;;;;;6.78;2.45;;;;;;;;;;10364415;28;20525;-80
2024/01/22 17:28:48;;;;;;;7.85;2.55;;;;;;;;;;10364932;28;20493;-80
2024/01/22 17:33:55;;;;;;;8.05;2.45;;;;;;;;;;10383528;28;20025;-80
2024/01/22 17:38:56;;;;;;;10.73;2.95;;;;;;;;;;10365684;28;20120;-79
2024/01/22 17:43:57;;;;;;;7.88;2.65;;;;;;;;;;10365764;28;20053;-79
2024/01/22 17:48:58;;;;;;;12.20;2.83;;;;;;;;;;10368824;28;20034;-82
2024/01/22 17:53:59;;;;;;;;;;;;;;;;;;10370621;28;20025;-82
2024/01/22 17:59:00;;;;;;;8.32;2.33;;;;;;;;;;10385108;28;19915;-79
2024/01/22 18:04:11;;;;;;;13.88;3.15;;;;;;;;;;10362862;28;20026;-78
2024/01/22 18:09:13;;;;;;;9.77;2.65;;;;;;;;;;10362636;28;20393;-77
2024/01/22 18:14:37;;;;;;;12.27;3.25;;;;;;;;;;10380216;28;20026;-78
2024/01/22 18:19:58;;;;;;;9.25;2.60;;;;;;;;;;10378719;28;20089;-79
2024/01/22 18:25:02;;;;;;;14.68;3.65;;;;;;;;;;10362460;28;20033;-79
2024/01/22 18:30:07;;;;;;;14.40;3.67;;;;;;;;;;10362430;28;20037;-79
2024/01/22 18:35:09;;;;;;;11.13;3.80;;;;;;;;;;10382316;28;20034;-79
2024/01/22 18:40:11;;;;;;;6.82;2.30;;;;;;;;;;10382273;28;20104;-80
2024/01/22 18:45:14;;;;;;;12.75;4.20;;;;;;;;;;10363948;28;20033;-80
2024/01/22 18:50:15;;;;;;;8.48;3.05;;;;;;;;;;10381979;28;20026;-79
2024/01/22 18:55:16;;;;;;;13.02;3.13;;;;;;;;;;10363865;28;20018;-79
2024/01/22 19:00:17;;;;;;;8.57;2.50;;;;;;;;;;10363424;28;20034;-79
2024/01/22 19:05:18;;;;;;;12.00;3.08;;;;;;;;;;10364475;28;20034;-80
2024/01/22 19:10:19;;;;;;;12.95;3.30;;;;;;;;;;10364478;28;20037;-79
2024/01/22 19:15:26;;;;;;;11.63;3.20;;;;;;;;;;10367784;28;20102;-83
2024/01/22 19:20:30;;;;;;;11.00;3.13;;;;;;;;;;10390014;28;20040;-83
2024/01/22 19:25:32;;;;;;;13.23;2.70;;;;;;;;;;10371568;28;20064;-82
2024/01/22 19:30:33;;;;;;;11.82;2.75;;;;;;;;;;10430892;23;20129;-81
2024/01/22 19:35:34;;;;;;;12.73;2.65;;;;;;;;;;10379606;28;20022;-79
2024/01/22 19:40:35;;;;;;;11.13;3.00;;;;;;;;;;10393809;28;20092;-80
2024/01/22 19:45:36;;;;;;;15.52;3.05;;;;;;;;;;10376996;28;20033;-80
2024/01/22 19:50:38;;;;;;;11.15;2.60;;;;;;;;;;10382627;28;20103;-80
2024/01/22 19:55:39;;;;;;;;;;;;;;;;;;10384351;28;20175;-80
2024/01/22 20:00:40;;;;;;;10.50;2.63;;;;;;;;;;10383721;28;19906;-80
2024/01/22 20:05:41;;;;;;;;;;;;;;;;;;10384727;28;20269;-81
